createdAt,value
2023-04-04T00:00:44.488Z,4.84
2023-04-04T00:03:17.210Z,4.83
2023-04-04T00:05:48.291Z,4.81
2023-04-04T00:08:18.253Z,4.78
2023-04-04T00:10:48.274Z,4.74
2023-04-04T00:13:18.514Z,4.70
2023-04-04T00:15:48.655Z,4.65
2023-04-04T00:18:22.005Z,4.59
2023-04-04T00:20:51.874Z,4.55
2023-04-04T00:23:21.735Z,4.50
2023-04-04T00:25:55.190Z,4.47
2023-04-04T00:28:25.280Z,4.40
2023-04-04T00:30:55.274Z,4.38
2023-04-04T00:33:28.075Z,4.37
2023-04-04T00:35:58.259Z,4.32
2023-04-04T00:38:29.901Z,4.28
2023-04-04T00:41:00.701Z,4.24
2023-04-04T00:43:31.030Z,4.22
2023-04-04T00:46:01.158Z,4.19
2023-04-04T00:48:34.729Z,4.17
2023-04-04T00:51:04.682Z,4.14
2023-04-04T00:53:34.930Z,4.11
2023-04-04T00:56:05.215Z,4.11
2023-04-04T00:58:35.495Z,4.06
2023-04-04T01:01:05.512Z,4.06
2023-04-04T01:03:39.909Z,4.07
2023-04-04T01:06:11.509Z,4.08
2023-04-04T01:08:42.667Z,4.08
2023-04-04T01:11:13.651Z,4.08
2023-04-04T01:13:43.707Z,4.06
2023-04-04T01:16:13.724Z,4.02
2023-04-04T01:18:47.510Z,3.98
2023-04-04T01:21:22.033Z,3.95
2023-04-04T01:24:00.145Z,3.90
2023-04-04T01:26:33.550Z,3.87
2023-04-04T01:29:03.493Z,3.83
2023-04-04T01:31:40.847Z,3.78
2023-04-04T01:34:18.999Z,3.75
2023-04-04T01:36:55.040Z,3.70
2023-04-04T01:39:30.986Z,3.68
2023-04-04T01:42:06.371Z,3.64
2023-04-04T01:44:36.642Z,3.61
2023-04-04T01:47:09.889Z,3.59
2023-04-04T01:49:39.901Z,3.54
2023-04-04T01:52:10.170Z,3.51
2023-04-04T01:54:40.085Z,3.48
2023-04-04T01:57:13.109Z,3.46
2023-04-04T01:59:43.101Z,3.44
2023-04-04T02:02:13.530Z,3.41
2023-04-04T02:04:43.552Z,3.38
2023-04-04T02:07:13.558Z,3.37
2023-04-04T02:09:43.814Z,3.38
2023-04-04T02:12:16.440Z,3.38
2023-04-04T02:14:46.749Z,3.40
2023-04-04T02:17:17.130Z,3.40
2023-04-04T02:19:47.176Z,3.39
2023-04-04T02:22:17.145Z,3.38
2023-04-04T02:24:47.027Z,3.35
2023-04-04T02:27:19.648Z,3.31
2023-04-04T02:29:49.496Z,3.28
2023-04-04T02:32:19.656Z,3.24
2023-04-04T02:34:49.503Z,3.20
2023-04-04T02:37:19.481Z,3.18
2023-04-04T02:39:49.669Z,3.16
2023-04-04T02:42:22.311Z,3.12
2023-04-04T02:44:52.301Z,3.08
2023-04-04T02:47:23.387Z,3.03
2023-04-04T02:49:53.376Z,3.01
2023-04-04T02:52:24.322Z,2.98
2023-04-04T02:54:54.688Z,2.95
2023-04-04T02:57:27.564Z,2.91
2023-04-04T02:59:57.567Z,2.86
2023-04-04T03:02:28.066Z,2.84
2023-04-04T03:04:58.184Z,2.83
2023-04-04T03:07:28.081Z,2.80
2023-04-04T03:10:02.548Z,2.78
2023-04-04T03:12:34.966Z,2.75
2023-04-04T03:15:05.695Z,2.73
2023-04-04T03:17:35.583Z,2.75
2023-04-04T03:20:05.467Z,2.76
2023-04-04T03:22:35.488Z,2.77
2023-04-04T03:25:05.396Z,2.78
2023-04-04T03:27:40.083Z,2.78
2023-04-04T03:30:11.697Z,2.76
2023-04-04T03:32:42.383Z,2.70
2023-04-04T03:35:13.279Z,2.69
2023-04-04T03:37:43.472Z,2.67
2023-04-04T03:40:14.574Z,2.65
2023-04-04T03:42:47.387Z,2.61
2023-04-04T03:45:17.400Z,2.58
2023-04-04T03:47:47.531Z,2.56
2023-04-04T03:50:17.585Z,2.54
2023-04-04T03:52:47.732Z,2.51
2023-04-04T03:55:17.918Z,2.49
2023-04-04T03:57:50.531Z,2.47
2023-04-04T04:00:20.909Z,2.43
2023-04-04T04:02:50.865Z,2.42
2023-04-04T04:05:20.909Z,2.38
2023-04-04T04:07:50.757Z,2.36
2023-04-04T04:10:20.805Z,2.33
2023-04-04T04:12:53.311Z,2.30
2023-04-04T04:15:23.228Z,2.27
2023-04-04T04:17:53.809Z,2.26
2023-04-04T04:20:23.751Z,2.23
2023-04-04T04:22:54.197Z,2.20
2023-04-04T04:25:24.590Z,2.19
2023-04-04T04:27:58.747Z,2.20
2023-04-04T04:30:28.905Z,2.24
2023-04-04T04:32:59.212Z,2.26
2023-04-04T04:35:29.182Z,2.25
2023-04-04T04:37:59.447Z,2.26
2023-04-04T04:40:29.476Z,2.23
2023-04-04T04:43:03.054Z,2.21
2023-04-04T04:45:33.353Z,2.16
2023-04-04T04:48:03.404Z,2.14
2023-04-04T04:50:33.640Z,2.11
2023-04-04T04:53:05.187Z,2.06
2023-04-04T04:55:35.083Z,2.02
2023-04-04T04:58:07.750Z,2.00
2023-04-04T05:00:38.416Z,1.98
2023-04-04T05:03:09.777Z,1.95
2023-04-04T05:05:39.868Z,1.92
2023-04-04T05:08:09.892Z,1.91
2023-04-04T05:10:40.373Z,1.89
2023-04-04T05:13:14.168Z,1.84
2023-04-04T05:15:44.162Z,1.83
2023-04-04T05:18:13.972Z,1.80
2023-04-04T05:20:46.929Z,1.80
2023-04-04T05:23:17.399Z,1.78
2023-04-04T05:25:47.458Z,1.76
2023-04-04T05:28:19.988Z,1.73
2023-04-04T05:30:50.425Z,1.72
2023-04-04T05:33:20.292Z,1.72
2023-04-04T05:35:50.475Z,1.74
2023-04-04T05:38:20.638Z,1.77
2023-04-04T05:40:50.726Z,1.80
2023-04-04T05:43:23.226Z,1.85
2023-04-04T05:45:53.250Z,1.86
2023-04-04T05:48:23.599Z,1.87
2023-04-04T05:50:53.499Z,1.87
2023-04-04T05:53:23.861Z,1.86
2023-04-04T05:55:55.763Z,1.84
2023-04-04T05:58:28.226Z,1.82
2023-04-04T06:01:00.263Z,1.81
2023-04-04T06:03:31.176Z,1.81
2023-04-04T06:06:01.403Z,1.85
2023-04-04T06:08:35.374Z,1.87
2023-04-04T06:11:10.356Z,1.90
2023-04-04T06:13:42.913Z,1.98
2023-04-04T06:16:13.026Z,2.05
2023-04-04T06:18:42.948Z,2.13
2023-04-04T06:21:13.533Z,2.22
2023-04-04T06:23:44.105Z,2.28
2023-04-04T06:26:15.119Z,2.38
2023-04-04T06:28:53.075Z,2.48
2023-04-04T06:31:23.447Z,2.60
2023-04-04T06:33:53.487Z,2.65
2023-04-04T06:36:23.537Z,2.67
2023-04-04T06:38:54.301Z,2.74
2023-04-04T06:41:24.176Z,2.86
2023-04-04T06:43:56.830Z,3.07
2023-04-04T06:46:27.402Z,3.37
2023-04-04T06:48:58.173Z,3.68
2023-04-04T06:51:28.852Z,4.05
2023-04-04T06:53:59.470Z,4.36
2023-04-04T06:56:30.030Z,4.63
2023-04-04T06:59:06.113Z,4.88
2023-04-04T07:01:38.264Z,5.21
2023-04-04T07:04:08.249Z,5.55
2023-04-04T07:06:38.230Z,5.89
2023-04-04T07:09:15.372Z,6.15
2023-04-04T07:11:55.146Z,6.43
2023-04-04T07:14:27.682Z,6.66
2023-04-04T07:16:58.541Z,6.91
2023-04-04T07:19:29.106Z,7.14
2023-04-04T07:22:00.455Z,7.39
2023-04-04T07:24:30.650Z,7.64
2023-04-04T07:27:00.529Z,7.82
2023-04-04T07:29:32.924Z,8.06
2023-04-04T07:32:03.269Z,8.31
2023-04-04T07:34:35.207Z,8.60
2023-04-04T07:37:05.115Z,8.86
2023-04-04T07:39:35.112Z,9.03
2023-04-04T07:42:05.013Z,9.21
2023-04-04T07:44:37.612Z,9.41
2023-04-04T07:47:10.343Z,9.63
2023-04-04T07:49:40.694Z,9.86
2023-04-04T07:52:10.928Z,10.08
2023-04-04T07:54:40.941Z,10.19
2023-04-04T07:57:10.929Z,10.12
2023-04-04T07:59:43.453Z,10.10
2023-04-04T08:02:13.384Z,10.25
2023-04-04T08:04:43.614Z,10.20
2023-04-04T08:07:13.646Z,10.17
2023-04-04T08:09:43.833Z,10.19
2023-04-04T08:12:13.878Z,10.35
2023-04-04T08:14:46.829Z,10.54
2023-04-04T08:17:19.189Z,10.82
2023-04-04T08:19:49.500Z,11.06
2023-04-04T08:22:22.563Z,11.06
2023-04-04T08:24:52.588Z,11.04
2023-04-04T08:27:22.481Z,10.96
2023-04-04T08:29:55.075Z,10.92
2023-04-04T08:32:25.341Z,10.90
2023-04-04T08:34:55.561Z,11.12
2023-04-04T08:37:25.618Z,11.08
2023-04-04T08:39:55.610Z,10.95
2023-04-04T08:42:27.805Z,10.89
2023-04-04T08:45:02.681Z,11.22
2023-04-04T08:47:37.794Z,11.58
2023-04-04T08:50:13.465Z,11.93
2023-04-04T08:52:45.084Z,12.16
2023-04-04T08:55:16.153Z,12.28
2023-04-04T08:57:47.103Z,12.27
2023-04-04T09:00:21.798Z,12.03
2023-04-04T09:02:58.631Z,12.15
2023-04-04T09:05:29.393Z,12.08
2023-04-04T09:07:59.607Z,11.82
2023-04-04T09:10:30.048Z,11.90
2023-04-04T09:13:12.489Z,11.94
2023-04-04T09:15:51.453Z,12.27
2023-04-04T09:18:21.772Z,12.34
2023-04-04T09:20:53.040Z,12.25
2023-04-04T09:23:24.357Z,12.36
2023-04-04T09:26:03.677Z,12.50
2023-04-04T09:28:35.325Z,12.67
2023-04-04T09:31:11.653Z,12.54
2023-04-04T09:33:42.110Z,12.64
2023-04-04T09:36:18.275Z,12.56
2023-04-04T09:38:49.094Z,12.64
2023-04-04T09:41:21.663Z,12.73
2023-04-04T09:43:51.758Z,12.87
2023-04-04T09:46:26.582Z,12.74
2023-04-04T09:48:57.623Z,12.86
2023-04-04T09:51:27.697Z,12.98
2023-04-04T09:53:57.844Z,13.01
2023-04-04T09:56:27.881Z,12.74
2023-04-04T09:59:04.116Z,12.69
2023-04-04T10:01:37.783Z,12.72
2023-04-04T10:04:08.973Z,12.62
2023-04-04T10:06:39.983Z,12.78
2023-04-04T10:09:11.253Z,12.64
2023-04-04T10:11:41.164Z,12.65
2023-04-04T10:14:12.612Z,12.65
2023-04-04T10:16:48.856Z,12.67
2023-04-04T10:19:20.249Z,13.00
2023-04-04T10:21:51.306Z,13.10
2023-04-04T10:24:22.265Z,13.32
2023-04-04T10:26:53.582Z,13.37
2023-04-04T10:29:23.435Z,13.31
2023-04-04T10:32:03.598Z,13.34
2023-04-04T10:34:39.194Z,13.63
2023-04-04T10:37:13.123Z,13.92
2023-04-04T10:39:49.435Z,14.11
2023-04-04T10:42:22.227Z,14.33
2023-04-04T10:44:54.075Z,14.09
2023-04-04T10:47:29.712Z,13.99
2023-04-04T10:50:00.471Z,13.93
2023-04-04T10:52:34.101Z,13.73
2023-04-04T10:55:07.802Z,13.79
2023-04-04T10:57:42.211Z,13.93
2023-04-04T11:00:14.766Z,13.45
2023-04-04T11:02:57.037Z,13.42
2023-04-04T11:05:29.022Z,13.71
2023-04-04T11:08:07.717Z,13.72
2023-04-04T11:10:39.997Z,13.75
2023-04-04T11:13:14.517Z,13.59
2023-04-04T11:15:59.064Z,13.46
2023-04-04T11:18:51.083Z,13.52
2023-04-04T11:21:24.269Z,13.68
2023-04-04T11:24:19.270Z,13.68
2023-04-04T11:26:50.008Z,13.93
2023-04-04T11:29:56.089Z,13.97
2023-04-04T11:32:59.793Z,13.78
2023-04-04T11:35:37.390Z,13.82
2023-04-04T11:38:07.654Z,13.76
2023-04-04T11:40:39.336Z,13.87
2023-04-04T11:43:14.027Z,13.93
2023-04-04T11:45:48.300Z,13.85
2023-04-04T11:48:20.607Z,13.84
2023-04-04T11:50:53.220Z,13.93
2023-04-04T11:53:23.163Z,13.75
2023-04-04T11:55:56.860Z,13.71
2023-04-04T11:58:27.137Z,13.80
2023-04-04T12:00:57.122Z,13.80
2023-04-04T12:03:27.061Z,13.72
2023-04-04T12:06:00.652Z,13.65
2023-04-04T12:08:31.853Z,13.78
2023-04-04T12:11:07.482Z,13.84
2023-04-04T12:13:37.520Z,13.92
2023-04-04T12:16:08.285Z,14.04
2023-04-04T12:18:38.144Z,14.08
2023-04-04T12:21:10.877Z,14.23
2023-04-04T12:23:40.894Z,14.06
2023-04-04T12:26:11.668Z,14.12
2023-04-04T12:28:42.424Z,14.09
2023-04-04T12:31:12.805Z,14.12
2023-04-04T12:33:44.508Z,14.08
2023-04-04T12:36:17.283Z,14.13
2023-04-04T12:39:01.164Z,13.84
2023-04-04T12:41:31.814Z,14.03
2023-04-04T12:44:05.813Z,14.16
2023-04-04T12:46:40.038Z,14.26
2023-04-04T12:49:11.187Z,14.32
2023-04-04T12:51:44.275Z,14.35
2023-04-04T12:54:29.322Z,14.07
2023-04-04T12:57:00.072Z,14.09
2023-04-04T12:59:32.426Z,14.24
2023-04-04T13:02:04.105Z,14.30
2023-04-04T13:04:35.182Z,14.37
2023-04-04T13:07:07.796Z,14.33
2023-04-04T13:09:37.912Z,14.32
2023-04-04T13:12:10.322Z,14.20
2023-04-04T13:15:06.937Z,14.24
2023-04-04T13:17:46.270Z,14.26
2023-04-04T13:20:17.848Z,14.59
2023-04-04T13:22:50.613Z,14.94
2023-04-04T13:25:20.537Z,15.14
2023-04-04T13:27:50.745Z,15.24
2023-04-04T13:30:20.798Z,14.90
2023-04-04T13:32:50.963Z,14.86
2023-04-04T13:35:21.269Z,14.91
2023-04-04T13:37:54.097Z,14.92
2023-04-04T13:40:24.084Z,14.99
2023-04-04T13:42:54.236Z,14.99
2023-04-04T13:45:24.408Z,14.98
2023-04-04T13:47:54.464Z,14.86
2023-04-04T13:50:24.484Z,15.04
2023-04-04T13:52:57.039Z,15.09
2023-04-04T13:55:27.009Z,15.10
2023-04-04T13:57:57.041Z,15.10
2023-04-04T14:00:28.757Z,15.10
2023-04-04T14:02:59.461Z,15.13
2023-04-04T14:05:29.606Z,15.28
2023-04-04T14:08:02.625Z,15.32
2023-04-04T14:10:32.812Z,15.44
2023-04-04T14:13:02.718Z,15.55
2023-04-04T14:15:33.472Z,15.64
2023-04-04T14:18:03.581Z,15.62
2023-04-04T14:20:34.709Z,15.48
2023-04-04T14:23:12.160Z,15.30
2023-04-04T14:25:43.210Z,15.51
2023-04-04T14:28:13.288Z,15.71
2023-04-04T14:30:43.243Z,15.96
2023-04-04T14:33:13.346Z,15.94
2023-04-04T14:35:43.766Z,16.00
2023-04-04T14:38:16.661Z,15.79
2023-04-04T14:40:46.568Z,15.78
2023-04-04T14:43:19.097Z,15.62
2023-04-04T14:45:49.044Z,15.71
2023-04-04T14:48:18.941Z,15.61
2023-04-04T14:50:49.718Z,15.58
2023-04-04T14:53:23.051Z,15.44
2023-04-04T14:55:55.906Z,15.43
2023-04-04T14:58:28.642Z,15.47
2023-04-04T15:00:58.756Z,15.55
2023-04-04T15:03:29.346Z,15.65
2023-04-04T15:05:59.662Z,15.58
2023-04-04T15:08:32.411Z,15.50
2023-04-04T15:11:03.831Z,15.55
2023-04-04T15:13:33.728Z,15.54
2023-04-04T15:16:04.496Z,15.35
2023-04-04T15:18:34.472Z,15.25
2023-04-04T15:21:04.495Z,15.15
2023-04-04T15:23:37.161Z,15.09
2023-04-04T15:26:07.203Z,15.16
2023-04-04T15:28:37.295Z,15.28
2023-04-04T15:31:08.465Z,15.37
2023-04-04T15:33:38.685Z,15.45
2023-04-04T15:36:08.961Z,15.47
2023-04-04T15:38:42.411Z,15.34
2023-04-04T15:41:13.279Z,14.99
2023-04-04T15:43:43.097Z,14.95
2023-04-04T15:46:13.456Z,14.96
2023-04-04T15:48:43.468Z,14.99
2023-04-04T15:51:13.475Z,14.70
2023-04-04T15:53:46.106Z,14.59
2023-04-04T15:56:16.866Z,14.61
2023-04-04T15:58:46.794Z,14.55
2023-04-04T16:01:16.953Z,14.58
2023-04-04T16:03:47.251Z,14.56
2023-04-04T16:06:17.133Z,14.54
2023-04-04T16:08:49.754Z,14.51
2023-04-04T16:11:22.030Z,14.46
2023-04-04T16:13:51.988Z,14.44
2023-04-04T16:16:21.961Z,14.33
2023-04-04T16:18:51.952Z,14.34
2023-04-04T16:21:21.915Z,14.36
2023-04-04T16:23:55.783Z,14.26
2023-04-04T16:26:25.810Z,14.26
2023-04-04T16:28:55.984Z,14.26
2023-04-04T16:31:25.946Z,14.23
2023-04-04T16:33:55.853Z,14.26
2023-04-04T16:36:26.081Z,14.17
2023-04-04T16:38:59.604Z,14.11
2023-04-04T16:41:29.883Z,14.07
2023-04-04T16:43:59.887Z,14.02
2023-04-04T16:46:30.427Z,14.04
2023-04-04T16:49:00.572Z,14.03
2023-04-04T16:51:32.231Z,13.97
2023-04-04T16:54:04.698Z,13.95
2023-04-04T16:56:34.598Z,13.81
2023-04-04T16:59:04.500Z,13.77
2023-04-04T17:01:34.673Z,13.75
2023-04-04T17:04:04.941Z,13.54
2023-04-04T17:06:34.861Z,13.33
2023-04-04T17:09:08.246Z,13.12
2023-04-04T17:11:39.709Z,13.07
2023-04-04T17:14:09.896Z,13.08
2023-04-04T17:16:40.007Z,13.08
2023-04-04T17:19:09.832Z,13.01
2023-04-04T17:21:39.675Z,12.98
2023-04-04T17:24:12.243Z,12.95
2023-04-04T17:26:42.249Z,12.90
2023-04-04T17:29:12.108Z,12.84
2023-04-04T17:31:43.623Z,12.82
2023-04-04T17:34:15.246Z,12.82
2023-04-04T17:36:45.253Z,12.82
2023-04-04T17:39:17.964Z,12.76
2023-04-04T17:41:48.640Z,12.68
2023-04-04T17:44:18.940Z,12.60
2023-04-04T17:46:49.064Z,12.54
2023-04-04T17:49:20.498Z,12.47
2023-04-04T17:51:51.010Z,12.39
2023-04-04T17:54:23.972Z,12.33
2023-04-04T17:56:54.058Z,12.32
2023-04-04T17:59:24.542Z,12.31
2023-04-04T18:01:54.465Z,12.29
2023-04-04T18:04:28.390Z,12.23
2023-04-04T18:06:58.248Z,12.09
2023-04-04T18:09:31.420Z,11.93
2023-04-04T18:12:02.714Z,11.83
2023-04-04T18:14:32.770Z,11.79
2023-04-04T18:17:02.738Z,11.81
2023-04-04T18:19:32.718Z,11.80
2023-04-04T18:22:02.886Z,11.76
2023-04-04T18:24:35.330Z,11.72
2023-04-04T18:27:05.343Z,11.68
2023-04-04T18:29:35.319Z,11.64
2023-04-04T18:32:05.319Z,11.64
2023-04-04T18:34:36.411Z,11.61
2023-04-04T18:37:06.888Z,11.55
2023-04-04T18:39:39.629Z,11.48
2023-04-04T18:42:10.784Z,11.42
2023-04-04T18:44:40.820Z,11.35
2023-04-04T18:47:11.982Z,11.28
2023-04-04T18:49:42.199Z,11.20
2023-04-04T18:52:12.185Z,11.13
2023-04-04T18:54:45.280Z,11.04
2023-04-04T18:57:16.586Z,10.97
2023-04-04T18:59:46.616Z,10.91
2023-04-04T19:02:16.812Z,10.83
2023-04-04T19:04:46.856Z,10.80
2023-04-04T19:07:22.242Z,10.73
2023-04-04T19:09:54.939Z,10.66
2023-04-04T19:12:24.875Z,10.58
2023-04-04T19:14:54.886Z,10.53
2023-04-04T19:17:24.741Z,10.50
2023-04-04T19:19:55.151Z,10.45
2023-04-04T19:22:24.999Z,10.38
2023-04-04T19:24:57.540Z,10.34
2023-04-04T19:27:27.430Z,10.29
2023-04-04T19:29:57.603Z,10.26
2023-04-04T19:32:30.647Z,10.19
2023-04-04T19:35:01.113Z,10.06
2023-04-04T19:37:30.910Z,9.98
2023-04-04T19:40:03.708Z,9.91
2023-04-04T19:42:33.618Z,9.79
2023-04-04T19:45:04.124Z,9.67
2023-04-04T19:47:34.093Z,9.62
2023-04-04T19:50:04.065Z,9.59
2023-04-04T19:52:34.022Z,9.55
2023-04-04T19:55:12.200Z,9.53
2023-04-04T19:57:42.221Z,9.52
2023-04-04T20:00:19.475Z,9.49
2023-04-04T20:03:01.940Z,9.47
2023-04-04T20:06:04.806Z,9.44
2023-04-04T20:08:39.954Z,9.46
2023-04-04T20:11:13.376Z,9.45
2023-04-04T20:13:44.238Z,9.43
2023-04-04T20:16:15.962Z,9.40
2023-04-04T20:18:47.670Z,9.38
2023-04-04T20:21:19.104Z,9.35
2023-04-04T20:23:54.880Z,9.31
2023-04-04T20:26:55.643Z,9.26
2023-04-04T20:29:28.845Z,9.27
2023-04-04T20:32:00.824Z,9.24
2023-04-04T20:34:42.945Z,9.15
2023-04-04T20:37:16.351Z,9.12
2023-04-04T20:39:51.065Z,9.12
2023-04-04T20:42:40.583Z,9.06
2023-04-04T20:45:41.332Z,9.00
2023-04-04T20:48:11.780Z,8.99
2023-04-04T20:50:48.611Z,8.96
2023-04-04T20:53:27.627Z,8.91
2023-04-04T20:55:58.008Z,8.89
2023-04-04T20:58:34.334Z,8.85
2023-04-04T21:01:04.453Z,8.83
2023-04-04T21:03:37.271Z,8.86
2023-04-04T21:06:16.664Z,8.84
2023-04-04T21:08:48.846Z,8.86
2023-04-04T21:11:27.489Z,8.85
2023-04-04T21:14:00.499Z,8.83
2023-04-04T21:16:30.986Z,8.80
2023-04-04T21:19:02.696Z,8.76
2023-04-04T21:21:32.778Z,8.72
2023-04-04T21:24:03.900Z,8.71
2023-04-04T21:26:36.696Z,8.67
2023-04-04T21:29:11.650Z,8.64
2023-04-04T21:31:43.533Z,8.61
2023-04-04T21:34:16.280Z,8.55
2023-04-04T21:36:47.265Z,8.52
2023-04-04T21:39:18.475Z,8.47
2023-04-04T21:41:48.890Z,8.42
2023-04-04T21:44:21.794Z,8.38
2023-04-04T21:46:51.686Z,8.33
2023-04-04T21:49:21.506Z,8.32
2023-04-04T21:51:51.311Z,8.30
2023-04-04T21:54:21.326Z,8.28
2023-04-04T21:56:51.233Z,8.27
2023-04-04T21:59:23.756Z,8.24
2023-04-04T22:01:53.662Z,8.19
2023-04-04T22:04:23.612Z,8.12
2023-04-04T22:06:53.914Z,8.06
2023-04-04T22:09:25.932Z,7.99
2023-04-04T22:11:59.190Z,7.94
2023-04-04T22:14:33.401Z,7.87
2023-04-04T22:17:03.297Z,7.84
2023-04-04T22:19:43.001Z,7.78
2023-04-04T22:22:13.818Z,7.71
2023-04-04T22:24:44.962Z,7.64
2023-04-04T22:27:15.210Z,7.57
2023-04-04T22:29:47.866Z,7.52
2023-04-04T22:32:17.769Z,7.45
2023-04-04T22:34:47.669Z,7.42
2023-04-04T22:37:19.985Z,7.37
2023-04-04T22:39:50.104Z,7.34
2023-04-04T22:42:20.116Z,7.29
2023-04-04T22:44:52.975Z,7.25
2023-04-04T22:47:23.158Z,7.20
2023-04-04T22:49:53.120Z,7.12
2023-04-04T22:52:23.025Z,7.08
2023-04-04T22:54:52.879Z,7.04
2023-04-04T22:57:25.136Z,7.03
2023-04-04T22:59:57.817Z,7.03
2023-04-04T23:02:27.860Z,7.03
2023-04-04T23:04:58.702Z,7.01
2023-04-04T23:07:29.440Z,6.96
2023-04-04T23:09:59.425Z,6.90
2023-04-04T23:12:32.342Z,6.85
2023-04-04T23:15:05.584Z,6.79
2023-04-04T23:17:36.396Z,6.74
2023-04-04T23:20:09.548Z,6.69
2023-04-04T23:22:40.201Z,6.63
2023-04-04T23:25:10.626Z,6.59
2023-04-04T23:27:40.670Z,6.54
2023-04-04T23:30:14.621Z,6.49
2023-04-04T23:32:44.483Z,6.43
2023-04-04T23:35:14.527Z,6.40
2023-04-04T23:37:44.400Z,6.33
2023-04-04T23:40:15.163Z,6.30
2023-04-04T23:42:45.135Z,6.26
2023-04-04T23:45:19.466Z,6.20
2023-04-04T23:47:49.371Z,6.15
2023-04-04T23:50:20.560Z,6.10
2023-04-04T23:52:50.552Z,6.07
2023-04-04T23:55:20.552Z,6.03
2023-04-04T23:57:50.554Z,6.00
